createdAt,value
2017-09-20T00:01:14.946Z,16.93
2017-09-20T00:03:42.511Z,17.63
2017-09-20T00:06:10.050Z,19.10
2017-09-20T00:08:37.615Z,18.03
2017-09-20T00:11:05.147Z,20.23
2017-09-20T00:13:32.716Z,21.67
2017-09-20T00:16:01.020Z,19.30
2017-09-20T00:18:28.592Z,18.70
2017-09-20T00:20:56.138Z,15.00
2017-09-20T00:23:23.679Z,19.53
2017-09-20T00:25:51.998Z,15.40
2017-09-20T00:28:19.548Z,18.97
2017-09-20T00:30:47.107Z,19.60
2017-09-20T00:33:14.634Z,18.20
2017-09-20T00:35:42.963Z,18.30
2017-09-20T00:38:23.517Z,19.70
2017-09-20T00:40:51.091Z,17.43
2017-09-20T00:43:18.623Z,17.40
2017-09-20T00:45:46.179Z,20.50
2017-09-20T00:48:27.789Z,19.30
2017-09-20T00:50:55.351Z,21.87
2017-09-20T00:53:22.887Z,19.67
2017-09-20T00:55:50.443Z,21.23
2017-09-20T00:58:17.986Z,18.93
2017-09-20T01:00:46.302Z,22.33
2017-09-20T01:03:13.844Z,17.40
2017-09-20T01:05:41.411Z,18.40
2017-09-20T01:08:08.954Z,18.70
2017-09-20T01:10:36.519Z,20.80
2017-09-20T01:13:04.055Z,18.47
2017-09-20T01:15:32.384Z,21.47
2017-09-20T01:17:59.923Z,20.43
2017-09-20T01:20:39.376Z,18.20
2017-09-20T01:23:18.662Z,20.80
2017-09-20T01:25:47.017Z,23.93
2017-09-20T01:28:14.550Z,20.40
2017-09-20T01:30:42.105Z,21.80
2017-09-20T01:33:09.653Z,19.57
2017-09-20T01:35:37.221Z,21.00
2017-09-20T01:38:04.759Z,21.67
2017-09-20T01:40:32.330Z,21.80
2017-09-20T01:42:59.864Z,24.63
2017-09-20T01:45:28.167Z,22.97
2017-09-20T01:47:59.117Z,22.90
2017-09-20T01:50:26.660Z,20.43
2017-09-20T01:52:54.221Z,22.40
2017-09-20T01:55:21.768Z,24.27
2017-09-20T01:57:50.095Z,26.13
2017-09-20T02:00:17.628Z,22.90
2017-09-20T02:02:45.187Z,24.03
2017-09-20T02:05:12.719Z,23.17
2017-09-20T02:07:41.044Z,29.80
2017-09-20T02:10:08.580Z,24.10
2017-09-20T02:12:36.139Z,21.67
2017-09-20T02:15:03.670Z,24.43
2017-09-20T02:17:31.999Z,21.30
2017-09-20T02:19:59.531Z,23.53
2017-09-20T02:22:27.087Z,27.13
2017-09-20T02:24:54.626Z,31.77
2017-09-20T02:27:22.963Z,23.50
2017-09-20T02:29:50.499Z,25.50
2017-09-20T02:32:18.055Z,24.67
2017-09-20T02:34:45.582Z,30.30
2017-09-20T02:37:13.904Z,21.07
2017-09-20T02:39:41.442Z,22.20
2017-09-20T02:42:09.007Z,28.43
2017-09-20T02:44:36.552Z,25.63
2017-09-20T02:47:04.092Z,21.93
2017-09-20T02:49:32.423Z,23.50
2017-09-20T02:51:59.963Z,28.47
2017-09-20T02:54:27.525Z,27.30
2017-09-20T02:56:55.069Z,30.30
2017-09-20T02:59:22.631Z,27.90
2017-09-20T03:01:50.168Z,24.97
2017-09-20T03:04:18.505Z,28.40
2017-09-20T03:06:46.044Z,26.73
2017-09-20T03:09:13.607Z,23.93
2017-09-20T03:11:41.145Z,26.70
2017-09-20T03:14:08.715Z,27.10
2017-09-20T03:16:36.257Z,24.33
2017-09-20T03:19:04.596Z,30.70
2017-09-20T03:21:32.133Z,31.70
2017-09-20T03:23:59.691Z,29.33
2017-09-20T03:26:27.224Z,22.97
2017-09-20T03:28:54.778Z,35.40
2017-09-20T03:31:22.323Z,33.23
2017-09-20T03:33:50.658Z,31.97
2017-09-20T03:36:18.959Z,25.80
2017-09-20T03:38:46.522Z,25.17
2017-09-20T03:41:14.066Z,31.67
2017-09-20T03:43:41.631Z,31.37
2017-09-20T03:46:09.170Z,24.13
2017-09-20T03:48:36.740Z,20.90
2017-09-20T03:51:04.272Z,24.27
2017-09-20T03:53:31.809Z,19.40
2017-09-20T03:56:00.136Z,25.20
2017-09-20T03:58:27.683Z,30.20
2017-09-20T04:00:55.237Z,30.37
2017-09-20T04:03:22.766Z,35.97
2017-09-20T04:05:51.098Z,34.80
2017-09-20T04:08:18.640Z,36.33
2017-09-20T04:10:46.202Z,43.27
2017-09-20T04:13:13.739Z,38.40
2017-09-20T04:15:41.295Z,35.63
2017-09-20T04:18:08.833Z,35.63
2017-09-20T04:20:37.168Z,31.40
2017-09-20T04:23:04.702Z,27.43
2017-09-20T04:25:32.259Z,35.37
2017-09-20T04:27:59.795Z,55.80
2017-09-20T04:30:28.129Z,29.97
2017-09-20T04:32:55.669Z,31.10
2017-09-20T04:35:23.236Z,35.33
2017-09-20T04:37:51.309Z,36.33
2017-09-20T04:40:18.978Z,42.10
2017-09-20T04:42:46.507Z,37.50
2017-09-20T04:45:14.070Z,64.33
2017-09-20T04:47:41.603Z,31.20
2017-09-20T04:50:09.942Z,53.47
2017-09-20T04:52:37.501Z,44.53
2017-09-20T04:55:05.040Z,26.57
2017-09-20T04:57:52.478Z,39.93
2017-09-20T05:00:20.015Z,33.13
2017-09-20T05:02:47.575Z,30.57
2017-09-20T05:05:15.243Z,34.70
2017-09-20T05:07:42.800Z,35.10
2017-09-20T05:10:10.375Z,33.70
2017-09-20T05:12:37.935Z,37.30
2017-09-20T05:15:05.473Z,37.50
2017-09-20T05:17:33.049Z,36.73
2017-09-20T05:20:00.593Z,32.50
2017-09-20T05:22:28.148Z,35.47
2017-09-20T05:24:55.691Z,28.23
2017-09-20T05:27:24.032Z,31.23
2017-09-20T05:29:51.571Z,50.77
2017-09-20T05:32:19.131Z,38.80
2017-09-20T05:34:46.662Z,35.80
2017-09-20T05:37:14.231Z,41.97
2017-09-20T05:39:41.767Z,39.57
2017-09-20T05:42:10.094Z,43.93
2017-09-20T05:44:37.623Z,48.87
2017-09-20T05:47:05.181Z,51.43
2017-09-20T05:49:32.723Z,53.83
2017-09-20T05:52:01.050Z,49.60
2017-09-20T05:54:28.592Z,53.13
2017-09-20T05:56:56.191Z,46.83
2017-09-20T05:59:23.808Z,50.87
2017-09-20T06:01:51.392Z,48.43
2017-09-20T06:04:18.929Z,52.20
2017-09-20T06:06:46.451Z,52.50
2017-09-20T06:09:14.790Z,60.43
2017-09-20T06:11:42.322Z,48.70
2017-09-20T06:14:09.879Z,47.30
2017-09-20T06:16:37.420Z,41.07
2017-09-20T06:19:05.749Z,43.53
2017-09-20T06:21:33.297Z,44.60
2017-09-20T06:24:00.867Z,49.20
2017-09-20T06:26:28.412Z,46.90
2017-09-20T06:28:55.970Z,38.60
2017-09-20T06:31:23.511Z,42.77
2017-09-20T06:33:51.079Z,40.93
2017-09-20T06:36:18.616Z,37.97
2017-09-20T06:38:46.947Z,31.00
2017-09-20T06:41:14.475Z,38.87
2017-09-20T06:43:42.032Z,48.00
2017-09-20T06:46:09.567Z,41.50
2017-09-20T06:48:37.890Z,42.57
2017-09-20T06:51:05.436Z,39.77
2017-09-20T06:53:33.004Z,38.90
2017-09-20T06:56:00.531Z,40.00
2017-09-20T06:58:28.855Z,46.23
2017-09-20T07:00:56.388Z,41.07
2017-09-20T07:03:23.927Z,36.37
2017-09-20T07:05:52.252Z,46.43
2017-09-20T07:08:19.783Z,39.60
2017-09-20T07:10:47.356Z,38.60
2017-09-20T07:13:14.894Z,39.63
2017-09-20T07:15:42.451Z,42.57
2017-09-20T07:18:09.991Z,40.10
2017-09-20T07:20:38.320Z,48.43
2017-09-20T07:23:05.846Z,44.30
2017-09-20T07:25:33.410Z,47.67
2017-09-20T07:28:00.958Z,48.87
2017-09-20T07:30:28.520Z,47.53
2017-09-20T07:32:56.068Z,43.70
2017-09-20T07:35:24.408Z,47.07
2017-09-20T07:37:51.949Z,45.70
2017-09-20T07:40:19.512Z,44.73
2017-09-20T07:42:47.046Z,46.20
2017-09-20T07:45:14.617Z,43.93
2017-09-20T07:47:42.152Z,47.07
2017-09-20T07:50:10.483Z,44.23
2017-09-20T07:52:38.026Z,45.57
2017-09-20T07:55:05.591Z,43.67
2017-09-20T07:57:33.136Z,45.40
2017-09-20T08:00:00.704Z,44.10
2017-09-20T08:02:28.238Z,42.27
2017-09-20T08:04:55.811Z,43.53
2017-09-20T08:07:23.348Z,44.73
2017-09-20T08:09:51.656Z,42.83
2017-09-20T08:12:19.222Z,41.70
2017-09-20T08:14:46.767Z,38.27
2017-09-20T08:17:14.336Z,42.40
2017-09-20T08:19:41.886Z,48.30
2017-09-20T08:22:09.453Z,46.97
2017-09-20T08:24:36.992Z,46.30
2017-09-20T08:27:04.564Z,39.23
2017-09-20T08:29:32.102Z,50.70
2017-09-20T08:32:00.432Z,41.47
2017-09-20T08:34:28.013Z,44.13
2017-09-20T08:36:55.569Z,46.87
2017-09-20T08:39:23.115Z,41.93
2017-09-20T08:41:50.685Z,42.70
2017-09-20T08:44:18.234Z,38.93
2017-09-20T08:46:45.803Z,44.63
2017-09-20T08:49:13.362Z,43.70
2017-09-20T08:51:40.939Z,44.17
2017-09-20T08:54:08.474Z,49.63
2017-09-20T08:56:36.044Z,48.67
2017-09-20T08:59:03.584Z,46.80
2017-09-20T09:01:31.150Z,55.97
2017-09-20T09:03:58.692Z,47.67
2017-09-20T09:06:26.276Z,44.20
2017-09-20T09:08:53.815Z,47.03
2017-09-20T09:11:21.369Z,40.53
2017-09-20T09:13:48.935Z,42.90
2017-09-20T09:16:16.480Z,43.97
2017-09-20T09:18:44.056Z,46.80
2017-09-20T09:21:11.605Z,40.90
2017-09-20T09:23:39.167Z,42.20
2017-09-20T09:26:06.709Z,46.50
2017-09-20T09:28:34.280Z,39.30
2017-09-20T09:31:01.807Z,32.17
2017-09-20T09:33:30.140Z,36.37
2017-09-20T09:35:58.449Z,39.97
2017-09-20T09:38:26.018Z,35.20
2017-09-20T09:40:53.554Z,30.50
2017-09-20T09:43:21.127Z,29.03
2017-09-20T09:45:48.671Z,29.07
2017-09-20T09:48:16.236Z,29.40
2017-09-20T09:50:43.782Z,30.50
2017-09-20T09:53:11.342Z,29.73
2017-09-20T09:55:38.871Z,32.60
2017-09-20T09:58:06.428Z,32.53
2017-09-20T10:00:33.975Z,26.90
2017-09-20T10:03:02.296Z,27.57
2017-09-20T10:05:29.838Z,30.50
2017-09-20T10:07:57.411Z,34.23
2017-09-20T10:10:24.944Z,25.70
2017-09-20T10:12:52.489Z,29.17
2017-09-20T10:15:20.819Z,28.23
2017-09-20T10:17:48.360Z,29.83
2017-09-20T10:20:15.911Z,39.73
2017-09-20T10:22:43.459Z,34.53
2017-09-20T10:25:11.021Z,37.17
2017-09-20T10:27:38.565Z,31.97
2017-09-20T10:30:06.891Z,31.67
2017-09-20T10:32:34.432Z,32.83
2017-09-20T10:35:01.990Z,31.53
2017-09-20T10:37:29.536Z,33.23
2017-09-20T10:39:57.109Z,32.20
2017-09-20T10:42:24.655Z,32.70
2017-09-20T10:44:52.221Z,29.50
2017-09-20T10:47:19.760Z,31.70
2017-09-20T10:49:48.097Z,27.23
2017-09-20T10:52:15.647Z,28.60
2017-09-20T10:54:43.208Z,25.63
2017-09-20T10:57:10.751Z,24.67
2017-09-20T10:59:38.316Z,26.70
2017-09-20T11:02:05.842Z,22.23
2017-09-20T11:04:33.406Z,21.70
2017-09-20T11:07:00.948Z,18.97
2017-09-20T11:09:29.288Z,18.07
2017-09-20T11:11:56.831Z,22.30
2017-09-20T11:14:24.375Z,17.60
2017-09-20T11:16:51.943Z,15.97
2017-09-20T11:19:19.488Z,19.80
2017-09-20T11:21:47.051Z,17.50
2017-09-20T11:24:14.581Z,17.07
2017-09-20T11:26:42.904Z,16.33
2017-09-20T11:29:10.447Z,15.60
2017-09-20T11:31:38.006Z,16.47
2017-09-20T11:34:05.555Z,13.80
2017-09-20T11:36:33.123Z,13.97
2017-09-20T11:39:00.672Z,14.00
2017-09-20T11:41:28.997Z,13.57
2017-09-20T11:43:56.527Z,13.70
2017-09-20T11:46:24.088Z,13.47
2017-09-20T11:48:51.624Z,14.03
2017-09-20T11:51:19.976Z,12.00
2017-09-20T11:53:47.499Z,9.43
2017-09-20T11:56:15.052Z,8.90
2017-09-20T11:58:42.571Z,9.37
2017-09-20T12:01:10.894Z,12.30
2017-09-20T12:03:38.437Z,10.80
2017-09-20T12:06:05.990Z,10.60
2017-09-20T12:08:33.525Z,10.10
2017-09-20T12:11:01.864Z,12.57
2017-09-20T12:13:29.397Z,11.23
2017-09-20T12:15:56.922Z,11.57
2017-09-20T12:18:25.245Z,10.30
2017-09-20T12:20:52.775Z,9.40
2017-09-20T12:23:21.103Z,6.93
2017-09-20T12:25:48.622Z,9.13
2017-09-20T12:28:16.185Z,6.90
2017-09-20T12:30:43.705Z,8.30
2017-09-20T12:33:11.258Z,8.50
2017-09-20T12:35:38.789Z,8.57
2017-09-20T12:38:06.342Z,9.00
2017-09-20T12:40:33.883Z,11.00
2017-09-20T12:43:01.441Z,10.83
2017-09-20T12:45:28.978Z,8.10
2017-09-20T12:47:57.324Z,10.23
2017-09-20T12:50:24.856Z,9.23
2017-09-20T12:52:52.402Z,8.60
2017-09-20T12:55:19.928Z,8.30
2017-09-20T12:57:48.250Z,6.97
2017-09-20T13:00:15.785Z,9.37
2017-09-20T13:02:43.336Z,8.77
2017-09-20T13:05:11.655Z,7.70
2017-09-20T13:07:39.179Z,8.20
2017-09-20T13:10:07.492Z,7.40
2017-09-20T13:12:35.032Z,7.90
2017-09-20T13:15:02.590Z,6.00
2017-09-20T13:17:30.119Z,10.40
2017-09-20T13:19:58.444Z,6.70
2017-09-20T13:22:25.985Z,6.43
2017-09-20T13:24:53.535Z,8.80
2017-09-20T13:27:21.071Z,7.83
2017-09-20T13:29:48.631Z,6.90
2017-09-20T13:32:16.932Z,7.30
2017-09-20T13:34:44.459Z,8.53
2017-09-20T13:37:12.007Z,7.93
2017-09-20T13:39:39.543Z,10.23
2017-09-20T13:42:07.096Z,6.00
2017-09-20T13:44:34.629Z,7.30
2017-09-20T13:47:02.947Z,6.80
2017-09-20T13:49:30.480Z,7.07
2017-09-20T13:51:58.039Z,6.63
2017-09-20T13:54:25.575Z,6.33
2017-09-20T13:56:53.906Z,6.47
2017-09-20T13:59:21.436Z,6.07
2017-09-20T14:01:48.982Z,5.80
2017-09-20T14:04:16.522Z,8.93
2017-09-20T14:06:44.848Z,6.00
2017-09-20T14:09:12.385Z,7.93
2017-09-20T14:11:39.938Z,5.47
2017-09-20T14:14:08.241Z,7.23
2017-09-20T14:16:35.797Z,7.50
2017-09-20T14:19:03.332Z,6.20
2017-09-20T14:21:31.651Z,5.87
2017-09-20T14:23:59.180Z,7.63
2017-09-20T14:26:26.736Z,6.77
2017-09-20T14:28:54.279Z,8.80
2017-09-20T14:31:22.574Z,6.20
2017-09-20T14:33:50.136Z,7.60
2017-09-20T14:36:17.673Z,7.57
2017-09-20T14:38:45.992Z,9.73
2017-09-20T14:41:13.530Z,7.67
2017-09-20T14:43:41.098Z,14.17
2017-09-20T14:46:08.637Z,20.53
2017-09-20T14:48:36.966Z,8.77
2017-09-20T14:51:04.499Z,7.67
2017-09-20T14:53:32.054Z,7.67
2017-09-20T14:55:59.587Z,9.80
2017-09-20T14:58:27.912Z,8.10
2017-09-20T15:00:56.226Z,17.03
2017-09-20T15:03:23.797Z,19.40
2017-09-20T15:05:52.103Z,13.43
2017-09-20T15:08:19.650Z,9.40
2017-09-20T15:10:47.951Z,8.67
2017-09-20T15:13:15.504Z,6.53
2017-09-20T15:15:43.040Z,6.03
2017-09-20T15:18:11.368Z,5.23
2017-09-20T15:20:38.900Z,6.77
2017-09-20T15:23:06.623Z,4.53
2017-09-20T15:25:34.156Z,6.77
2017-09-20T15:28:01.688Z,6.17
2017-09-20T15:30:29.241Z,11.57
2017-09-20T15:32:56.771Z,15.67
2017-09-20T15:35:25.090Z,8.93
2017-09-20T15:37:52.630Z,12.77
2017-09-20T15:40:20.197Z,23.30
2017-09-20T15:42:47.738Z,5.50
2017-09-20T15:45:15.295Z,8.10
2017-09-20T15:47:43.592Z,7.03
2017-09-20T15:50:11.143Z,5.73
2017-09-20T15:52:38.677Z,5.37
2017-09-20T15:55:07.005Z,5.50
2017-09-20T15:57:34.539Z,6.30
2017-09-20T16:00:02.108Z,6.60
2017-09-20T16:02:29.644Z,7.47
2017-09-20T16:04:57.979Z,10.63
2017-09-20T16:07:25.511Z,7.20
2017-09-20T16:09:53.069Z,8.13
2017-09-20T16:12:20.607Z,6.27
2017-09-20T16:14:48.928Z,5.20
2017-09-20T16:17:16.469Z,6.20
2017-09-20T16:19:44.032Z,5.90
2017-09-20T16:22:11.932Z,7.20
2017-09-20T16:24:39.813Z,7.73
2017-09-20T16:27:07.338Z,6.20
2017-09-20T16:29:34.868Z,5.70
2017-09-20T16:32:02.431Z,7.83
2017-09-20T16:34:29.972Z,12.30
2017-09-20T16:36:58.302Z,29.47
2017-09-20T16:39:25.841Z,34.13
2017-09-20T16:41:53.397Z,12.07
2017-09-20T16:44:20.931Z,7.57
2017-09-20T16:46:49.260Z,6.07
2017-09-20T16:49:16.788Z,5.60
2017-09-20T16:51:44.336Z,7.27
2017-09-20T16:54:11.877Z,4.50
2017-09-20T16:56:40.211Z,4.10
2017-09-20T16:59:07.740Z,7.67
2017-09-20T17:01:35.299Z,8.40
2017-09-20T17:04:02.841Z,5.60
2017-09-20T17:06:31.167Z,5.10
2017-09-20T17:08:58.698Z,7.73
2017-09-20T17:11:26.251Z,6.90
2017-09-20T17:13:53.787Z,5.10
2017-09-20T17:16:22.107Z,5.33
2017-09-20T17:18:49.636Z,5.33
2017-09-20T17:21:17.951Z,5.03
2017-09-20T17:23:45.476Z,6.43
2017-09-20T17:26:13.803Z,6.43
2017-09-20T17:28:41.332Z,6.70
2017-09-20T17:31:08.868Z,6.80
2017-09-20T17:33:37.199Z,6.97
2017-09-20T17:36:04.725Z,6.50
2017-09-20T17:38:32.287Z,7.80
2017-09-20T17:40:59.817Z,7.00
2017-09-20T17:43:28.136Z,6.77
2017-09-20T17:45:55.664Z,7.63
2017-09-20T17:48:23.991Z,11.63
2017-09-20T17:50:51.536Z,7.20
2017-09-20T17:53:19.103Z,8.17
2017-09-20T17:55:46.631Z,7.40
2017-09-20T17:58:14.192Z,8.60
2017-09-20T18:00:41.724Z,8.00
2017-09-20T18:03:12.534Z,11.93
2017-09-20T18:05:40.091Z,9.37
2017-09-20T18:08:07.671Z,10.83
2017-09-20T18:10:35.214Z,11.87
2017-09-20T18:13:02.787Z,10.50
2017-09-20T18:15:30.327Z,9.97
2017-09-20T18:17:57.888Z,12.13
2017-09-20T18:20:25.428Z,9.47
2017-09-20T18:22:53.013Z,11.37
2017-09-20T18:25:20.550Z,15.23
2017-09-20T18:27:48.113Z,14.80
2017-09-20T18:30:15.660Z,12.63
2017-09-20T18:32:43.199Z,13.30
2017-09-20T18:35:10.764Z,13.50
2017-09-20T18:37:38.310Z,11.37
2017-09-20T18:40:06.634Z,12.60
2017-09-20T18:42:34.171Z,10.40
2017-09-20T18:45:02.068Z,12.83
2017-09-20T18:47:29.628Z,15.07
2017-09-20T18:49:57.223Z,15.87
2017-09-20T18:52:25.536Z,20.80
2017-09-20T18:54:53.099Z,17.37
2017-09-20T18:57:20.643Z,17.50
2017-09-20T18:59:48.210Z,16.00
2017-09-20T19:02:15.744Z,14.60
2017-09-20T19:04:44.069Z,17.10
2017-09-20T19:07:11.610Z,17.83
2017-09-20T19:09:39.181Z,16.93
2017-09-20T19:12:06.722Z,14.20
2017-09-20T19:14:34.302Z,20.33
2017-09-20T19:17:01.851Z,17.70
2017-09-20T19:19:29.435Z,15.33
2017-09-20T19:21:57.056Z,19.63
2017-09-20T19:24:24.624Z,17.17
2017-09-20T19:26:52.164Z,22.03
2017-09-20T19:29:20.505Z,16.70
2017-09-20T19:31:48.039Z,17.27
2017-09-20T19:34:15.671Z,14.43
2017-09-20T19:36:43.999Z,15.20
2017-09-20T19:39:11.535Z,17.50
2017-09-20T19:41:39.459Z,14.33
2017-09-20T19:44:08.010Z,15.00
2017-09-20T19:46:35.638Z,18.30
2017-09-20T19:49:03.236Z,15.10
2017-09-20T19:51:30.863Z,18.60
2017-09-20T19:53:58.404Z,17.30
2017-09-20T19:56:26.736Z,22.13
2017-09-20T19:58:54.274Z,15.50
2017-09-20T20:01:21.896Z,19.90
2017-09-20T20:03:50.210Z,18.60
2017-09-20T20:06:17.780Z,18.40
2017-09-20T20:08:45.315Z,16.43
2017-09-20T20:11:12.875Z,19.10
2017-09-20T20:13:40.412Z,22.13
2017-09-20T20:16:08.777Z,18.17
2017-09-20T20:18:37.096Z,19.07
2017-09-20T20:21:04.789Z,20.00
2017-09-20T20:23:32.332Z,17.77
2017-09-20T20:25:59.935Z,17.97
2017-09-20T20:28:27.642Z,17.20
2017-09-20T20:30:55.219Z,19.93
2017-09-20T20:33:22.883Z,19.43
2017-09-20T20:35:50.411Z,20.57
2017-09-20T20:38:17.983Z,21.17
2017-09-20T20:40:45.519Z,17.37
2017-09-20T20:43:13.850Z,15.33
2017-09-20T20:45:41.438Z,21.40
2017-09-20T20:48:09.038Z,17.00
2017-09-20T20:50:36.576Z,18.20
2017-09-20T20:53:04.902Z,17.87
2017-09-20T20:55:32.448Z,21.10
2017-09-20T20:58:00.019Z,17.13
2017-09-20T21:00:27.600Z,20.53
2017-09-20T21:02:55.967Z,15.70
2017-09-20T21:05:23.495Z,18.10
2017-09-20T21:07:51.042Z,18.73
2017-09-20T21:10:19.339Z,18.83
2017-09-20T21:12:46.905Z,20.03
2017-09-20T21:15:14.437Z,19.70
2017-09-20T21:17:42.000Z,17.03
2017-09-20T21:20:09.540Z,16.17
2017-09-20T21:22:37.115Z,17.20
2017-09-20T21:25:05.412Z,19.63
2017-09-20T21:27:32.990Z,19.53
2017-09-20T21:30:00.534Z,19.13
2017-09-20T21:32:28.105Z,18.37
2017-09-20T21:34:55.644Z,16.83
2017-09-20T21:37:23.273Z,22.53
2017-09-20T21:39:50.832Z,27.00
2017-09-20T21:42:18.361Z,19.07
2017-09-20T21:44:45.919Z,19.30
2017-09-20T21:47:13.465Z,16.67
2017-09-20T21:49:41.024Z,23.43
2017-09-20T21:52:08.559Z,21.30
2017-09-20T21:54:36.120Z,20.77
2017-09-20T21:57:03.655Z,21.67
2017-09-20T21:59:31.219Z,21.17
2017-09-20T22:01:59.547Z,20.57
2017-09-20T22:04:27.110Z,21.53
2017-09-20T22:06:54.642Z,24.20
2017-09-20T22:09:22.200Z,18.03
2017-09-20T22:11:49.750Z,19.17
2017-09-20T22:14:17.308Z,17.90
2017-09-20T22:16:56.751Z,22.60
2017-09-20T22:19:36.146Z,21.20
2017-09-20T22:22:15.591Z,23.20
2017-09-20T22:24:55.074Z,16.83
2017-09-20T22:27:28.499Z,21.10
2017-09-20T22:29:56.053Z,21.53
2017-09-20T22:52:09.004Z,33.20
2017-09-20T22:54:36.771Z,29.47
2017-09-20T22:57:04.311Z,33.50
2017-09-20T22:59:31.868Z,29.10
2017-09-20T23:01:59.420Z,27.90
2017-09-20T23:04:26.951Z,24.40
2017-09-20T23:06:54.523Z,25.07
2017-09-20T23:09:33.018Z,23.33
2017-09-20T23:12:00.576Z,27.60
2017-09-20T23:14:28.119Z,26.63
2017-09-20T23:16:55.690Z,25.77
2017-09-20T23:19:23.222Z,27.50
2017-09-20T23:21:50.783Z,25.00
2017-09-20T23:24:18.315Z,31.53
2017-09-20T23:26:45.878Z,25.77
2017-09-20T23:29:13.419Z,32.20
2017-09-20T23:31:41.760Z,21.27
2017-09-20T23:34:09.286Z,23.70
2017-09-20T23:36:36.838Z,22.10
2017-09-20T23:39:04.368Z,30.17
2017-09-20T23:41:34.635Z,21.30
2017-09-20T23:44:02.185Z,23.50
2017-09-20T23:46:29.761Z,23.00
2017-09-20T23:48:57.304Z,24.17
2017-09-20T23:51:24.866Z,23.97
2017-09-20T23:53:52.397Z,34.13
2017-09-20T23:56:20.734Z,23.87
2017-09-20T23:58:48.271Z,22.10
